createdAt,value
2022-07-26T00:00:21.397Z,12.95
2022-07-26T00:02:52.406Z,11.03
2022-07-26T00:05:23.500Z,11.35
2022-07-26T00:07:55.636Z,11.18
2022-07-26T00:10:26.592Z,12.20
2022-07-26T00:12:57.217Z,10.58
2022-07-26T00:15:28.582Z,9.78
2022-07-26T00:17:59.346Z,8.58
2022-07-26T00:20:30.344Z,9.48
2022-07-26T00:23:02.630Z,8.50
2022-07-26T00:25:33.481Z,8.40
2022-07-26T00:28:04.445Z,7.20
2022-07-26T00:30:35.867Z,6.45
2022-07-26T00:33:07.009Z,5.67
2022-07-26T00:35:38.026Z,5.83
2022-07-26T00:38:09.084Z,6.10
2022-07-26T00:40:39.814Z,5.33
2022-07-26T00:43:13.223Z,6.08
2022-07-26T00:45:43.420Z,5.80
2022-07-26T00:48:14.462Z,5.92
2022-07-26T00:50:49.275Z,5.72
2022-07-26T00:53:21.853Z,5.15
2022-07-26T00:55:53.970Z,5.30
2022-07-26T00:58:24.977Z,5.78
2022-07-26T01:00:55.904Z,6.10
2022-07-26T01:03:29.293Z,6.12
2022-07-26T01:05:59.108Z,5.33
2022-07-26T01:08:31.211Z,5.17
2022-07-26T01:11:02.189Z,5.97
2022-07-26T01:13:35.481Z,4.97
2022-07-26T01:16:06.276Z,4.95
2022-07-26T01:18:37.199Z,4.35
2022-07-26T01:21:13.160Z,5.17
2022-07-26T01:23:44.832Z,4.80
2022-07-26T01:26:16.107Z,4.85
2022-07-26T01:28:48.829Z,4.42
2022-07-26T01:31:20.364Z,4.92
2022-07-26T01:33:51.941Z,4.50
2022-07-26T01:36:23.200Z,4.78
2022-07-26T01:38:54.085Z,4.50
2022-07-26T01:41:33.580Z,5.25
2022-07-26T01:43:57.750Z,4.97
2022-07-26T01:46:28.780Z,4.80
2022-07-26T01:49:00.421Z,4.50
2022-07-26T01:51:31.816Z,4.12
2022-07-26T01:54:03.331Z,4.28
2022-07-26T01:56:34.499Z,4.50
2022-07-26T01:59:05.765Z,3.90
2022-07-26T02:01:38.929Z,3.67
2022-07-26T02:04:09.480Z,3.37
2022-07-26T02:06:40.603Z,3.58
2022-07-26T02:09:13.224Z,3.45
2022-07-26T02:11:44.432Z,3.50
2022-07-26T02:14:25.686Z,3.60
2022-07-26T02:16:47.406Z,3.17
2022-07-26T02:19:18.148Z,3.25
2022-07-26T02:21:49.048Z,3.60
2022-07-26T02:24:20.044Z,3.22
2022-07-26T02:26:51.054Z,3.27
2022-07-26T02:29:21.968Z,3.10
2022-07-26T02:31:53.397Z,3.60
2022-07-26T02:34:24.523Z,3.55
2022-07-26T02:36:55.873Z,3.02
2022-07-26T02:39:28.148Z,2.60
2022-07-26T02:42:02.293Z,2.70
2022-07-26T02:44:38.286Z,2.80
2022-07-26T02:47:14.714Z,3.08
2022-07-26T02:49:50.048Z,2.92
2022-07-26T02:52:22.163Z,2.85
2022-07-26T02:54:53.451Z,2.98
2022-07-26T02:57:24.479Z,2.50
2022-07-26T02:59:55.404Z,2.67
2022-07-26T03:02:26.299Z,2.67
2022-07-26T03:04:57.283Z,2.95
2022-07-26T03:07:30.771Z,2.85
2022-07-26T03:10:04.082Z,2.87
2022-07-26T03:12:37.427Z,2.55
2022-07-26T03:15:16.965Z,2.65
2022-07-26T03:17:46.444Z,2.50
2022-07-26T03:20:17.575Z,2.33
2022-07-26T03:22:57.298Z,2.70
2022-07-26T03:25:27.765Z,2.45
2022-07-26T03:27:59.403Z,2.75
2022-07-26T03:30:34.280Z,2.70
2022-07-26T03:33:10.947Z,3.00
2022-07-26T03:35:42.053Z,2.75
2022-07-26T03:38:14.736Z,2.80
2022-07-26T03:40:45.639Z,2.67
2022-07-26T03:43:24.137Z,2.35
2022-07-26T03:45:54.472Z,2.47
2022-07-26T03:48:25.449Z,2.30
2022-07-26T03:51:04.792Z,3.10
2022-07-26T03:53:38.081Z,3.50
2022-07-26T03:56:11.083Z,2.37
2022-07-26T03:58:43.296Z,2.92
2022-07-26T04:01:24.543Z,2.87
2022-07-26T04:04:03.762Z,2.22
2022-07-26T04:06:34.080Z,2.70
2022-07-26T04:09:10.493Z,2.60
2022-07-26T04:11:41.587Z,2.22
2022-07-26T04:14:13.549Z,2.50
2022-07-26T04:16:44.455Z,2.62
2022-07-26T04:19:16.046Z,2.60
2022-07-26T04:21:46.707Z,3.15
2022-07-26T04:24:18.060Z,3.00
2022-07-26T04:26:49.069Z,2.70
2022-07-26T04:29:20.212Z,2.55
2022-07-26T04:31:51.249Z,2.65
2022-07-26T04:34:22.642Z,2.72
2022-07-26T04:36:55.681Z,2.08
2022-07-26T04:39:27.254Z,2.17
2022-07-26T04:41:58.193Z,3.00
2022-07-26T04:44:28.942Z,3.47
2022-07-26T04:47:00.469Z,3.00
2022-07-26T04:49:34.971Z,5.25
2022-07-26T04:52:04.815Z,4.08
2022-07-26T04:54:40.384Z,2.95
2022-07-26T04:57:13.794Z,2.80
2022-07-26T04:59:43.562Z,3.90
2022-07-26T05:02:16.141Z,3.20
2022-07-26T05:04:50.355Z,3.20
2022-07-26T05:07:21.808Z,4.90
2022-07-26T05:09:52.869Z,6.03
2022-07-26T05:12:29.769Z,4.00
2022-07-26T05:15:04.420Z,2.80
2022-07-26T05:17:35.833Z,2.80
2022-07-26T05:20:06.227Z,2.90
2022-07-26T05:22:40.489Z,3.20
2022-07-26T05:25:11.757Z,3.20
2022-07-26T05:27:43.026Z,3.00
2022-07-26T05:30:14.388Z,3.55
2022-07-26T05:32:45.170Z,2.77
2022-07-26T05:35:16.494Z,2.83
2022-07-26T05:37:47.542Z,2.75
2022-07-26T05:40:18.864Z,2.58
2022-07-26T05:42:49.904Z,2.95
2022-07-26T05:45:20.846Z,2.55
2022-07-26T05:47:53.301Z,2.70
2022-07-26T05:50:24.401Z,2.72
2022-07-26T05:52:55.722Z,3.00
2022-07-26T05:55:26.455Z,2.60
2022-07-26T05:57:57.256Z,3.75
2022-07-26T06:00:28.270Z,2.80
2022-07-26T06:02:59.278Z,3.70
2022-07-26T06:05:30.308Z,3.12
2022-07-26T06:08:01.445Z,3.30
2022-07-26T06:10:32.173Z,2.65
2022-07-26T06:13:03.113Z,2.95
2022-07-26T06:15:33.944Z,3.17
2022-07-26T06:18:07.565Z,3.20
2022-07-26T06:20:41.534Z,3.35
2022-07-26T06:23:13.328Z,2.75
2022-07-26T06:25:45.037Z,3.00
2022-07-26T06:28:15.860Z,3.22
2022-07-26T06:30:47.810Z,3.33
2022-07-26T06:33:18.669Z,2.60
2022-07-26T06:35:50.295Z,2.70
2022-07-26T06:38:21.166Z,3.27
2022-07-26T06:40:52.068Z,3.25
2022-07-26T06:43:23.386Z,3.37
2022-07-26T06:45:54.566Z,3.58
2022-07-26T06:48:25.459Z,3.80
2022-07-26T06:50:56.939Z,5.47
2022-07-26T06:53:27.691Z,4.40
2022-07-26T06:55:58.518Z,3.85
2022-07-26T06:58:29.393Z,3.17
2022-07-26T07:01:07.517Z,2.80
2022-07-26T07:03:38.719Z,3.60
2022-07-26T07:06:09.754Z,3.05
2022-07-26T07:08:40.561Z,2.98
2022-07-26T07:11:12.847Z,2.80
2022-07-26T07:13:44.499Z,3.17
2022-07-26T07:16:17.790Z,3.12
2022-07-26T07:18:50.600Z,3.10
2022-07-26T07:21:21.392Z,3.27
2022-07-26T07:23:52.337Z,4.95
2022-07-26T07:26:23.084Z,4.50
2022-07-26T07:28:55.297Z,3.50
2022-07-26T07:31:30.478Z,3.35
2022-07-26T07:34:01.002Z,3.42
2022-07-26T07:36:33.172Z,3.27
2022-07-26T07:39:06.626Z,2.90
2022-07-26T07:41:37.558Z,3.42
2022-07-26T07:44:09.184Z,3.92
2022-07-26T07:46:40.435Z,3.33
2022-07-26T07:49:12.421Z,2.85
2022-07-26T07:51:43.887Z,3.08
2022-07-26T07:54:17.389Z,3.40
2022-07-26T07:56:51.356Z,3.40
2022-07-26T07:59:22.757Z,2.90
2022-07-26T08:04:44.184Z,3.00
2022-07-26T08:21:52.348Z,2.67
2022-07-26T08:24:23.581Z,2.98
2022-07-26T08:26:55.575Z,2.30
2022-07-26T08:29:27.009Z,2.92
2022-07-26T08:31:58.169Z,1.92
2022-07-26T08:34:29.513Z,1.90
2022-07-26T08:37:16.559Z,1.77
2022-07-26T08:39:32.820Z,1.80
2022-07-26T08:42:06.012Z,2.00
2022-07-26T08:44:37.556Z,1.87
2022-07-26T08:47:08.448Z,1.80
2022-07-26T08:49:39.923Z,1.70
2022-07-26T08:52:12.871Z,1.57
2022-07-26T08:54:46.155Z,1.67
2022-07-26T08:57:18.359Z,1.60
2022-07-26T08:59:50.382Z,2.08
2022-07-26T09:02:21.725Z,1.35
2022-07-26T09:04:52.803Z,1.40
2022-07-26T09:07:23.767Z,1.70
2022-07-26T09:09:57.114Z,1.70
2022-07-26T09:12:29.333Z,1.60
2022-07-26T09:15:01.557Z,1.50
2022-07-26T09:17:34.992Z,1.50
2022-07-26T09:20:09.759Z,1.32
2022-07-26T09:22:43.055Z,1.40
2022-07-26T09:25:16.651Z,1.10
2022-07-26T09:27:47.508Z,1.10
2022-07-26T09:30:19.332Z,1.10
2022-07-26T09:32:55.528Z,1.15
2022-07-26T09:37:59.879Z,1.25
2022-07-26T09:40:33.344Z,1.22
2022-07-26T09:43:06.748Z,1.60
2022-07-26T09:45:39.748Z,1.30
2022-07-26T09:48:14.671Z,1.77
2022-07-26T09:50:49.745Z,1.32
2022-07-26T09:53:21.984Z,1.37
2022-07-26T09:55:52.192Z,1.37
2022-07-26T09:58:27.121Z,1.02
2022-07-26T10:01:02.343Z,1.17
2022-07-26T10:03:32.043Z,1.17
2022-07-26T10:06:04.247Z,1.40
2022-07-26T10:08:35.322Z,1.20
2022-07-26T10:11:08.684Z,1.17
2022-07-26T10:13:40.217Z,1.62
2022-07-26T10:16:13.479Z,1.80
2022-07-26T10:18:47.216Z,1.30
2022-07-26T10:21:19.114Z,1.45
2022-07-26T10:23:52.460Z,1.62
2022-07-26T10:26:25.972Z,1.62
2022-07-26T10:28:56.988Z,1.40
2022-07-26T10:31:31.530Z,1.77
2022-07-26T10:34:04.418Z,1.47
2022-07-26T10:36:38.051Z,1.37
2022-07-26T10:39:12.408Z,1.80
2022-07-26T10:41:45.732Z,1.57
2022-07-26T10:44:17.588Z,1.50
2022-07-26T10:46:51.374Z,1.60
2022-07-26T10:49:22.371Z,2.20
2022-07-26T10:51:55.524Z,2.27
2022-07-26T10:54:26.697Z,2.27
2022-07-26T10:56:57.442Z,2.25
2022-07-26T10:59:54.704Z,2.05
2022-07-26T11:02:07.582Z,2.10
2022-07-26T11:04:39.373Z,2.08
2022-07-26T11:07:10.289Z,2.37
2022-07-26T11:09:41.648Z,2.65
2022-07-26T11:12:14.904Z,2.72
2022-07-26T11:14:48.375Z,2.72
2022-07-26T11:17:20.785Z,2.20
2022-07-26T11:19:51.624Z,2.40
2022-07-26T11:22:22.851Z,3.12
2022-07-26T11:24:54.295Z,2.77
2022-07-26T11:27:25.377Z,2.83
2022-07-26T11:29:56.443Z,2.80
2022-07-26T11:32:28.555Z,2.70
2022-07-26T11:35:01.846Z,2.80
2022-07-26T11:37:32.908Z,2.92
2022-07-26T11:40:03.731Z,18.52
2022-07-26T11:42:34.566Z,8.90
2022-07-26T11:45:05.701Z,3.90
2022-07-26T11:47:37.293Z,103.05
2022-07-26T11:50:15.281Z,8.73
2022-07-26T11:52:43.282Z,52.20
2022-07-26T11:55:14.632Z,6.30
2022-07-26T11:57:45.881Z,7.45
2022-07-26T12:00:17.638Z,475.90
2022-07-26T12:02:55.530Z,470.62
2022-07-26T12:05:26.239Z,339.72
2022-07-26T12:08:00.240Z,186.90
2022-07-26T12:10:34.996Z,51.70
2022-07-26T12:13:07.695Z,412.60
2022-07-26T12:15:41.368Z,59.77
2022-07-26T12:18:18.093Z,28.57
2022-07-26T12:20:55.953Z,186.95
2022-07-26T12:23:27.524Z,96.97
2022-07-26T12:26:00.202Z,197.28
2022-07-26T12:28:37.704Z,73.57
2022-07-26T12:31:11.259Z,105.45
2022-07-26T12:33:45.821Z,225.70
2022-07-26T12:36:27.439Z,233.02
2022-07-26T12:38:54.153Z,268.93
2022-07-26T12:41:35.550Z,37.45
2022-07-26T12:44:08.452Z,82.80
2022-07-26T12:46:40.077Z,14.93
2022-07-26T12:49:13.678Z,182.30
2022-07-26T12:51:49.838Z,64.67
2022-07-26T12:54:20.883Z,8.40
2022-07-26T12:56:52.446Z,13.43
2022-07-26T12:59:23.374Z,23.07
2022-07-26T13:01:54.768Z,11.65
2022-07-26T13:04:28.511Z,12.45
2022-07-26T13:06:59.789Z,28.35
2022-07-26T13:09:31.039Z,4.60
2022-07-26T13:12:03.461Z,6.12
2022-07-26T13:14:36.792Z,3.70
2022-07-26T13:17:08.767Z,3.70
2022-07-26T13:19:51.664Z,8.33
2022-07-26T13:22:17.908Z,7.60
2022-07-26T13:30:33.614Z,9.98
2022-07-26T13:33:07.412Z,7.05
2022-07-26T13:35:45.960Z,4.20
2022-07-26T13:38:24.929Z,3.67
2022-07-26T13:40:57.828Z,4.42
2022-07-26T13:43:35.155Z,4.58
2022-07-26T13:46:07.364Z,5.15
2022-07-26T13:48:59.664Z,33.33
2022-07-26T13:51:25.478Z,4.37
2022-07-26T13:54:01.181Z,3.40
2022-07-26T13:56:36.501Z,12.45
2022-07-26T13:59:11.001Z,28.83
2022-07-26T14:01:44.573Z,104.07
2022-07-26T14:04:20.677Z,10.82
2022-07-26T14:06:55.691Z,4.62
2022-07-26T14:09:26.777Z,6.90
2022-07-26T14:11:59.954Z,15.45
2022-07-26T14:14:36.641Z,21.50
2022-07-26T14:17:07.917Z,18.55
2022-07-26T14:19:38.478Z,17.17
2022-07-26T14:22:09.532Z,88.33
2022-07-26T14:24:44.943Z,6.20
2022-07-26T14:27:17.753Z,10.35
2022-07-26T14:29:48.683Z,8.75
2022-07-26T14:32:22.357Z,15.80
2022-07-26T14:34:55.406Z,9.65
2022-07-26T14:37:41.804Z,16.42
2022-07-26T14:42:49.594Z,10.65
2022-07-26T14:45:26.473Z,37.67
2022-07-26T14:48:00.458Z,7.83
2022-07-26T14:50:59.823Z,14.65
2022-07-26T14:53:07.204Z,31.50
2022-07-26T14:55:40.578Z,11.05
2022-07-26T14:58:14.484Z,6.95
2022-07-26T15:00:45.782Z,6.20
2022-07-26T15:03:16.776Z,5.85
2022-07-26T15:05:54.984Z,5.80
2022-07-26T15:08:26.845Z,6.87
2022-07-26T15:11:01.257Z,6.40
2022-07-26T15:13:33.635Z,5.78
2022-07-26T15:16:04.531Z,7.17
2022-07-26T15:18:38.664Z,4.55
2022-07-26T15:21:09.958Z,10.78
2022-07-26T15:23:41.492Z,6.35
2022-07-26T15:26:15.718Z,6.83
2022-07-26T15:28:46.455Z,14.43
2022-07-26T15:31:18.890Z,7.50
2022-07-26T15:34:01.839Z,6.35
2022-07-26T15:36:37.688Z,10.63
2022-07-26T15:39:17.876Z,5.43
2022-07-26T15:41:42.391Z,5.05
2022-07-26T15:44:15.830Z,8.30
2022-07-26T15:46:48.945Z,6.17
2022-07-26T15:49:20.504Z,7.55
2022-07-26T15:51:52.666Z,6.33
2022-07-26T15:54:24.803Z,4.92
2022-07-26T15:56:55.771Z,7.22
2022-07-26T15:59:26.601Z,34.27
2022-07-26T16:01:59.444Z,8.78
2022-07-26T16:04:30.817Z,7.92
2022-07-26T16:07:01.661Z,8.35
2022-07-26T16:09:32.518Z,17.23
2022-07-26T16:12:06.122Z,8.73
2022-07-26T16:14:35.524Z,29.20
2022-07-26T16:17:09.415Z,19.50
2022-07-26T16:19:42.189Z,9.30
2022-07-26T16:22:12.468Z,8.30
2022-07-26T16:24:43.197Z,7.12
2022-07-26T16:27:15.218Z,8.65
2022-07-26T16:29:49.068Z,5.60
2022-07-26T16:32:18.438Z,40.12
2022-07-26T16:34:53.735Z,13.45
2022-07-26T16:37:24.593Z,24.32
2022-07-26T16:39:57.048Z,11.90
2022-07-26T16:42:28.442Z,8.58
2022-07-26T16:44:59.376Z,5.15
2022-07-26T16:47:30.342Z,6.67
2022-07-26T16:50:02.291Z,6.22
2022-07-26T16:52:33.109Z,6.47
2022-07-26T16:55:05.885Z,6.40
2022-07-26T16:57:36.719Z,5.20
2022-07-26T17:00:10.747Z,15.83
2022-07-26T17:02:42.464Z,25.72
2022-07-26T17:05:13.987Z,14.05
2022-07-26T17:07:45.694Z,6.65
2022-07-26T17:10:16.463Z,8.63
2022-07-26T17:12:47.433Z,6.10
2022-07-26T17:15:18.310Z,5.33
2022-07-26T17:17:49.316Z,4.75
2022-07-26T17:20:20.919Z,6.83
2022-07-26T17:22:52.066Z,6.22
2022-07-26T17:25:23.020Z,6.95
2022-07-26T17:27:54.951Z,13.85
2022-07-26T17:30:25.815Z,6.58
2022-07-26T17:32:56.775Z,7.42
2022-07-26T17:35:27.869Z,8.88
2022-07-26T17:38:01.471Z,7.20
2022-07-26T17:40:38.571Z,26.42
2022-07-26T17:43:09.534Z,11.23
2022-07-26T17:45:40.335Z,10.48
2022-07-26T17:48:11.440Z,4.55
2022-07-26T17:50:42.447Z,4.20
2022-07-26T17:53:15.758Z,5.25
2022-07-26T17:55:48.282Z,4.45
2022-07-26T17:58:19.205Z,4.62
2022-07-26T18:00:50.711Z,4.97
2022-07-26T18:03:24.417Z,4.40
2022-07-26T18:06:08.699Z,4.62
2022-07-26T18:08:53.006Z,4.72
2022-07-26T18:11:23.739Z,4.90
2022-07-26T18:13:56.843Z,5.20
2022-07-26T18:16:31.014Z,4.92
2022-07-26T18:19:02.678Z,4.55
2022-07-26T18:21:36.656Z,4.60
2022-07-26T18:24:17.321Z,4.58
2022-07-26T18:26:45.522Z,4.25
2022-07-26T18:29:22.659Z,4.25
2022-07-26T18:32:08.972Z,4.03
2022-07-26T18:34:40.158Z,4.60
2022-07-26T18:37:15.460Z,4.08
2022-07-26T18:39:55.498Z,4.90
2022-07-26T18:42:26.002Z,4.78
2022-07-26T18:45:01.262Z,4.20
2022-07-26T18:47:32.958Z,4.90
2022-07-26T18:50:10.228Z,4.40
2022-07-26T18:52:45.921Z,4.22
2022-07-26T18:55:18.950Z,4.10
2022-07-26T18:57:54.506Z,4.12
2022-07-26T19:00:30.529Z,4.05
2022-07-26T19:03:06.254Z,4.05
2022-07-26T19:05:49.136Z,4.17
2022-07-26T19:08:25.855Z,3.62
2022-07-26T19:13:27.593Z,4.42
2022-07-26T19:15:59.104Z,4.03
2022-07-26T19:18:30.418Z,3.55
2022-07-26T19:21:04.302Z,4.30
2022-07-26T19:23:33.754Z,3.92
2022-07-26T19:26:06.372Z,3.87
2022-07-26T19:28:42.384Z,4.10
2022-07-26T19:31:12.086Z,3.90
2022-07-26T19:33:45.240Z,4.50
2022-07-26T19:36:25.504Z,4.37
2022-07-26T19:38:48.952Z,3.92
2022-07-26T19:41:21.903Z,3.95
2022-07-26T19:43:52.949Z,3.65
2022-07-26T19:46:27.077Z,4.03
2022-07-26T19:48:58.962Z,4.35
2022-07-26T19:51:30.214Z,4.00
2022-07-26T19:54:01.313Z,4.42
2022-07-26T19:56:35.409Z,4.65
2022-07-26T19:59:06.393Z,4.30
2022-07-26T20:01:37.346Z,4.15
2022-07-26T20:04:08.259Z,4.12
2022-07-26T20:06:39.382Z,4.25
2022-07-26T20:09:13.400Z,4.60
2022-07-26T20:11:46.061Z,4.50
2022-07-26T20:14:16.896Z,4.50
2022-07-26T20:16:50.443Z,4.47
2022-07-26T20:19:24.486Z,4.37
2022-07-26T20:21:59.798Z,4.30
2022-07-26T20:24:30.995Z,4.78
2022-07-26T20:27:02.049Z,4.15
2022-07-26T20:29:37.148Z,4.45
2022-07-26T20:32:08.711Z,4.37
2022-07-26T20:34:42.328Z,4.00
2022-07-26T20:37:19.215Z,4.47
2022-07-26T20:39:51.481Z,4.28
2022-07-26T20:42:27.066Z,4.58
2022-07-26T20:45:02.575Z,4.90
2022-07-26T20:47:40.209Z,4.08
2022-07-26T20:50:14.709Z,4.42
2022-07-26T20:52:45.331Z,4.72
2022-07-26T20:55:19.927Z,4.47
2022-07-26T20:57:52.032Z,4.53
2022-07-26T21:00:23.157Z,4.92
2022-07-26T21:02:55.735Z,4.05
2022-07-26T21:05:30.835Z,4.45
2022-07-26T21:07:59.940Z,4.60
2022-07-26T21:10:31.655Z,4.92
2022-07-26T21:13:02.873Z,4.35
2022-07-26T21:15:34.231Z,4.62
2022-07-26T21:18:05.260Z,4.80
2022-07-26T21:20:37.745Z,5.10
2022-07-26T21:23:17.207Z,4.45
2022-07-26T21:25:43.359Z,5.40
2022-07-26T21:28:14.137Z,5.33
2022-07-26T21:30:45.196Z,5.42
2022-07-26T21:33:16.938Z,5.37
2022-07-26T21:35:52.198Z,5.20
2022-07-26T21:38:26.127Z,5.62
2022-07-26T21:40:58.480Z,5.45
2022-07-26T21:43:33.681Z,6.05
2022-07-26T21:46:12.228Z,5.97
2022-07-26T21:48:42.339Z,6.78
2022-07-26T21:51:13.490Z,7.08
2022-07-26T21:53:44.622Z,7.03
2022-07-26T21:56:15.459Z,6.60
2022-07-26T21:58:46.986Z,6.95
2022-07-26T22:01:19.203Z,6.70
2022-07-26T22:03:50.022Z,6.20
2022-07-26T22:06:21.203Z,6.83
2022-07-26T22:08:53.181Z,6.53
2022-07-26T22:11:24.295Z,7.40
2022-07-26T22:13:55.273Z,7.22
2022-07-26T22:16:29.173Z,8.20
2022-07-26T22:19:00.015Z,7.87
2022-07-26T22:21:32.575Z,7.08
2022-07-26T22:24:03.573Z,6.80
2022-07-26T22:26:34.716Z,6.95
2022-07-26T22:29:05.439Z,6.15
2022-07-26T22:31:39.609Z,6.55
2022-07-26T22:34:10.535Z,7.83
2022-07-26T22:36:45.356Z,7.90
2022-07-26T22:39:14.572Z,7.15
2022-07-26T22:42:12.707Z,7.28
2022-07-26T22:44:17.980Z,7.45
2022-07-26T22:46:49.036Z,7.00
2022-07-26T22:49:19.893Z,6.45
2022-07-26T22:51:50.898Z,6.50
2022-07-26T22:54:21.632Z,6.62
2022-07-26T22:56:52.287Z,6.50
2022-07-26T22:59:23.913Z,6.50
2022-07-26T23:01:55.059Z,6.20
2022-07-26T23:04:26.079Z,6.00
2022-07-26T23:06:58.763Z,7.00
2022-07-26T23:09:30.897Z,6.12
2022-07-26T23:12:02.466Z,6.67
2022-07-26T23:14:33.787Z,5.83
2022-07-26T23:17:04.791Z,5.92
2022-07-26T23:19:36.750Z,6.33
2022-07-26T23:22:10.458Z,6.50
2022-07-26T23:24:43.500Z,6.90
2022-07-26T23:27:20.705Z,6.30
2022-07-26T23:32:41.117Z,6.25
2022-07-26T23:35:12.978Z,5.83
2022-07-26T23:37:43.916Z,6.28
2022-07-26T23:40:15.363Z,5.75
2022-07-26T23:42:46.323Z,6.12
2022-07-26T23:45:17.351Z,5.97
2022-07-26T23:47:50.234Z,7.70
2022-07-26T23:50:21.349Z,7.40
2022-07-26T23:52:52.383Z,7.42
2022-07-26T23:55:23.235Z,7.87
2022-07-26T23:57:54.192Z,7.47
